sensor_id;sensor_type;location;lat;lon;timestamp;P1;durP1;ratioP1;P2;durP2;ratioP2
28766;SDS011;15921;52.034;20.650;2023-06-26T00:00:20;9.52;;;6.45;;
28766;SDS011;15921;52.034;20.650;2023-06-26T00:02:45;14.73;;;7.32;;
28766;SDS011;15921;52.034;20.650;2023-06-26T00:05:11;12.07;;;6.95;;
28766;SDS011;15921;52.034;20.650;2023-06-26T00:07:38;10.98;;;6.90;;
28766;SDS011;15921;52.034;20.650;2023-06-26T00:10:04;12.38;;;7.22;;
28766;SDS011;15921;52.034;20.650;2023-06-26T00:12:31;15.05;;;7.82;;
28766;SDS011;15921;52.034;20.650;2023-06-26T00:14:57;11.45;;;6.75;;
28766;SDS011;15921;52.034;20.650;2023-06-26T00:17:23;11.02;;;7.05;;
28766;SDS011;15921;52.034;20.650;2023-06-26T00:19:49;12.25;;;7.05;;
28766;SDS011;15921;52.034;20.650;2023-06-26T00:22:16;11.65;;;7.25;;
28766;SDS011;15921;52.034;20.650;2023-06-26T00:24:41;13.00;;;7.68;;
28766;SDS011;15921;52.034;20.650;2023-06-26T00:27:07;11.07;;;7.00;;
28766;SDS011;15921;52.034;20.650;2023-06-26T00:29:33;11.73;;;7.70;;
28766;SDS011;15921;52.034;20.650;2023-06-26T00:31:59;14.48;;;7.85;;
28766;SDS011;15921;52.034;20.650;2023-06-26T00:34:24;9.98;;;6.80;;
28766;SDS011;15921;52.034;20.650;2023-06-26T00:36:50;12.60;;;7.93;;
28766;SDS011;15921;52.034;20.650;2023-06-26T00:39:15;15.77;;;8.15;;
28766;SDS011;15921;52.034;20.650;2023-06-26T00:41:41;14.75;;;8.85;;
28766;SDS011;15921;52.034;20.650;2023-06-26T00:44:07;15.80;;;8.38;;
28766;SDS011;15921;52.034;20.650;2023-06-26T00:46:33;16.50;;;8.70;;
28766;SDS011;15921;52.034;20.650;2023-06-26T00:49:00;12.98;;;8.18;;
28766;SDS011;15921;52.034;20.650;2023-06-26T00:51:29;14.95;;;8.45;;
28766;SDS011;15921;52.034;20.650;2023-06-26T00:53:56;13.38;;;8.23;;
28766;SDS011;15921;52.034;20.650;2023-06-26T00:56:22;12.40;;;7.55;;
28766;SDS011;15921;52.034;20.650;2023-06-26T00:58:48;11.68;;;7.75;;
28766;SDS011;15921;52.034;20.650;2023-06-26T01:01:14;14.07;;;7.47;;
28766;SDS011;15921;52.034;20.650;2023-06-26T01:03:48;13.18;;;8.07;;
28766;SDS011;15921;52.034;20.650;2023-06-26T01:06:17;13.40;;;7.80;;
28766;SDS011;15921;52.034;20.650;2023-06-26T01:08:46;13.15;;;7.63;;
28766;SDS011;15921;52.034;20.650;2023-06-26T01:11:13;11.80;;;7.65;;
28766;SDS011;15921;52.034;20.650;2023-06-26T01:13:39;14.27;;;7.90;;
28766;SDS011;15921;52.034;20.650;2023-06-26T01:16:07;12.65;;;7.97;;
28766;SDS011;15921;52.034;20.650;2023-06-26T01:18:34;15.77;;;8.35;;
28766;SDS011;15921;52.034;20.650;2023-06-26T01:21:02;13.02;;;7.93;;
28766;SDS011;15921;52.034;20.650;2023-06-26T01:23:44;11.93;;;7.97;;
28766;SDS011;15921;52.034;20.650;2023-06-26T01:26:30;16.60;;;7.35;;
28766;SDS011;15921;52.034;20.650;2023-06-26T01:29:00;12.00;;;7.70;;
28766;SDS011;15921;52.034;20.650;2023-06-26T01:31:27;11.98;;;7.55;;
28766;SDS011;15921;52.034;20.650;2023-06-26T01:33:56;12.80;;;7.60;;
28766;SDS011;15921;52.034;20.650;2023-06-26T01:36:24;10.43;;;7.00;;
28766;SDS011;15921;52.034;20.650;2023-06-26T01:38:50;12.40;;;7.40;;
28766;SDS011;15921;52.034;20.650;2023-06-26T01:41:16;10.38;;;6.85;;
28766;SDS011;15921;52.034;20.650;2023-06-26T01:46:38;11.38;;;7.03;;
28766;SDS011;15921;52.034;20.650;2023-06-26T01:49:46;10.88;;;7.05;;
28766;SDS011;15921;52.034;20.650;2023-06-26T01:57:58;15.98;;;7.45;;
28766;SDS011;15921;52.034;20.650;2023-06-26T02:00:24;12.98;;;7.68;;
28766;SDS011;15921;52.034;20.650;2023-06-26T02:02:51;13.10;;;7.97;;
28766;SDS011;15921;52.034;20.650;2023-06-26T02:05:17;10.20;;;7.32;;
28766;SDS011;15921;52.034;20.650;2023-06-26T02:07:43;12.32;;;8.48;;
28766;SDS011;15921;52.034;20.650;2023-06-26T02:10:09;14.55;;;7.32;;
28766;SDS011;15921;52.034;20.650;2023-06-26T02:12:35;10.50;;;7.03;;
28766;SDS011;15921;52.034;20.650;2023-06-26T02:15:02;13.95;;;8.70;;
28766;SDS011;15921;52.034;20.650;2023-06-26T02:17:28;19.42;;;7.57;;
28766;SDS011;15921;52.034;20.650;2023-06-26T02:19:53;16.33;;;7.47;;
28766;SDS011;15921;52.034;20.650;2023-06-26T02:22:19;13.68;;;7.90;;
28766;SDS011;15921;52.034;20.650;2023-06-26T02:24:45;11.63;;;7.65;;
28766;SDS011;15921;52.034;20.650;2023-06-26T02:27:11;14.63;;;7.57;;
28766;SDS011;15921;52.034;20.650;2023-06-26T02:29:37;15.27;;;7.88;;
28766;SDS011;15921;52.034;20.650;2023-06-26T02:32:04;15.02;;;8.02;;
28766;SDS011;15921;52.034;20.650;2023-06-26T02:34:30;15.20;;;8.00;;
28766;SDS011;15921;52.034;20.650;2023-06-26T02:36:55;13.90;;;8.20;;
28766;SDS011;15921;52.034;20.650;2023-06-26T02:39:21;12.70;;;7.93;;
28766;SDS011;15921;52.034;20.650;2023-06-26T02:41:47;13.32;;;8.07;;
28766;SDS011;15921;52.034;20.650;2023-06-26T02:44:13;13.88;;;8.00;;
28766;SDS011;15921;52.034;20.650;2023-06-26T02:46:39;17.70;;;8.52;;
28766;SDS011;15921;52.034;20.650;2023-06-26T02:49:05;16.00;;;8.63;;
28766;SDS011;15921;52.034;20.650;2023-06-26T02:51:32;13.93;;;8.65;;
28766;SDS011;15921;52.034;20.650;2023-06-26T02:53:58;12.90;;;8.57;;
28766;SDS011;15921;52.034;20.650;2023-06-26T02:56:24;14.30;;;9.25;;
28766;SDS011;15921;52.034;20.650;2023-06-26T02:58:54;14.90;;;8.45;;
28766;SDS011;15921;52.034;20.650;2023-06-26T03:01:20;14.40;;;8.85;;
28766;SDS011;15921;52.034;20.650;2023-06-26T03:03:46;14.55;;;8.63;;
28766;SDS011;15921;52.034;20.650;2023-06-26T03:06:12;15.20;;;8.23;;
28766;SDS011;15921;52.034;20.650;2023-06-26T03:08:38;13.48;;;8.48;;
28766;SDS011;15921;52.034;20.650;2023-06-26T03:11:07;14.00;;;9.13;;
28766;SDS011;15921;52.034;20.650;2023-06-26T03:13:34;12.95;;;8.27;;
28766;SDS011;15921;52.034;20.650;2023-06-26T03:16:00;16.23;;;10.02;;
28766;SDS011;15921;52.034;20.650;2023-06-26T03:18:26;19.05;;;10.70;;
28766;SDS011;15921;52.034;20.650;2023-06-26T03:20:52;12.63;;;9.15;;
28766;SDS011;15921;52.034;20.650;2023-06-26T03:23:21;15.50;;;9.27;;
28766;SDS011;15921;52.034;20.650;2023-06-26T03:25:47;13.25;;;8.27;;
28766;SDS011;15921;52.034;20.650;2023-06-26T03:28:13;15.18;;;8.98;;
28766;SDS011;15921;52.034;20.650;2023-06-26T03:30:39;14.40;;;8.50;;
28766;SDS011;15921;52.034;20.650;2023-06-26T03:33:05;12.23;;;8.02;;
28766;SDS011;15921;52.034;20.650;2023-06-26T03:35:31;13.77;;;8.98;;
28766;SDS011;15921;52.034;20.650;2023-06-26T03:37:57;16.40;;;8.27;;
28766;SDS011;15921;52.034;20.650;2023-06-26T03:40:23;13.00;;;8.20;;
28766;SDS011;15921;52.034;20.650;2023-06-26T03:42:49;13.07;;;8.20;;
28766;SDS011;15921;52.034;20.650;2023-06-26T03:45:15;14.57;;;8.43;;
28766;SDS011;15921;52.034;20.650;2023-06-26T03:47:41;12.75;;;8.70;;
28766;SDS011;15921;52.034;20.650;2023-06-26T03:50:06;11.50;;;8.13;;
28766;SDS011;15921;52.034;20.650;2023-06-26T03:52:32;17.25;;;8.70;;
28766;SDS011;15921;52.034;20.650;2023-06-26T03:54:58;12.80;;;9.18;;
28766;SDS011;15921;52.034;20.650;2023-06-26T03:57:24;16.13;;;9.02;;
28766;SDS011;15921;52.034;20.650;2023-06-26T03:59:50;20.17;;;9.68;;
28766;SDS011;15921;52.034;20.650;2023-06-26T04:02:16;15.00;;;9.60;;
28766;SDS011;15921;52.034;20.650;2023-06-26T04:04:42;18.15;;;10.25;;
28766;SDS011;15921;52.034;20.650;2023-06-26T04:07:08;17.15;;;9.93;;
28766;SDS011;15921;52.034;20.650;2023-06-26T04:09:34;13.45;;;8.98;;
28766;SDS011;15921;52.034;20.650;2023-06-26T04:11:59;16.63;;;9.23;;
28766;SDS011;15921;52.034;20.650;2023-06-26T04:14:25;14.68;;;9.38;;
28766;SDS011;15921;52.034;20.650;2023-06-26T04:16:51;17.45;;;8.85;;
28766;SDS011;15921;52.034;20.650;2023-06-26T04:19:17;13.98;;;9.27;;
28766;SDS011;15921;52.034;20.650;2023-06-26T04:21:43;17.73;;;9.23;;
28766;SDS011;15921;52.034;20.650;2023-06-26T04:24:09;18.20;;;9.73;;
28766;SDS011;15921;52.034;20.650;2023-06-26T04:26:34;12.93;;;8.55;;
28766;SDS011;15921;52.034;20.650;2023-06-26T04:29:00;19.10;;;9.57;;
28766;SDS011;15921;52.034;20.650;2023-06-26T04:31:26;18.48;;;8.95;;
28766;SDS011;15921;52.034;20.650;2023-06-26T04:33:52;15.90;;;8.65;;
28766;SDS011;15921;52.034;20.650;2023-06-26T04:36:19;13.45;;;8.23;;
28766;SDS011;15921;52.034;20.650;2023-06-26T04:38:45;12.85;;;8.73;;
28766;SDS011;15921;52.034;20.650;2023-06-26T04:41:13;14.27;;;8.15;;
28766;SDS011;15921;52.034;20.650;2023-06-26T04:43:39;17.00;;;9.18;;
28766;SDS011;15921;52.034;20.650;2023-06-26T04:46:05;13.77;;;8.43;;
28766;SDS011;15921;52.034;20.650;2023-06-26T04:48:31;11.77;;;8.00;;
28766;SDS011;15921;52.034;20.650;2023-06-26T04:50:57;18.02;;;8.75;;
28766;SDS011;15921;52.034;20.650;2023-06-26T04:53:24;12.73;;;8.57;;
28766;SDS011;15921;52.034;20.650;2023-06-26T04:55:50;17.10;;;8.27;;
28766;SDS011;15921;52.034;20.650;2023-06-26T04:58:16;11.90;;;8.02;;
28766;SDS011;15921;52.034;20.650;2023-06-26T05:00:42;15.05;;;8.05;;
28766;SDS011;15921;52.034;20.650;2023-06-26T05:03:11;12.50;;;6.85;;
28766;SDS011;15921;52.034;20.650;2023-06-26T05:05:38;12.57;;;7.88;;
28766;SDS011;15921;52.034;20.650;2023-06-26T05:08:16;13.93;;;8.30;;
28766;SDS011;15921;52.034;20.650;2023-06-26T05:10:51;12.15;;;8.02;;
28766;SDS011;15921;52.034;20.650;2023-06-26T05:13:18;14.57;;;8.10;;
28766;SDS011;15921;52.034;20.650;2023-06-26T05:15:45;13.20;;;8.55;;
28766;SDS011;15921;52.034;20.650;2023-06-26T05:18:11;12.20;;;7.60;;
28766;SDS011;15921;52.034;20.650;2023-06-26T05:20:37;13.27;;;7.95;;
28766;SDS011;15921;52.034;20.650;2023-06-26T05:23:03;11.90;;;7.32;;
28766;SDS011;15921;52.034;20.650;2023-06-26T05:25:30;14.23;;;8.02;;
28766;SDS011;15921;52.034;20.650;2023-06-26T05:27:57;13.00;;;7.55;;
28766;SDS011;15921;52.034;20.650;2023-06-26T05:30:26;9.98;;;6.85;;
28766;SDS011;15921;52.034;20.650;2023-06-26T05:32:53;13.25;;;7.78;;
28766;SDS011;15921;52.034;20.650;2023-06-26T05:35:22;11.88;;;7.50;;
28766;SDS011;15921;52.034;20.650;2023-06-26T05:37:49;13.77;;;7.53;;
28766;SDS011;15921;52.034;20.650;2023-06-26T05:40:16;8.38;;;6.68;;
28766;SDS011;15921;52.034;20.650;2023-06-26T05:42:42;10.80;;;7.15;;
28766;SDS011;15921;52.034;20.650;2023-06-26T05:45:09;10.18;;;6.68;;
28766;SDS011;15921;52.034;20.650;2023-06-26T05:47:36;8.32;;;6.25;;
28766;SDS011;15921;52.034;20.650;2023-06-26T05:50:02;16.30;;;7.65;;
28766;SDS011;15921;52.034;20.650;2023-06-26T05:52:28;14.48;;;8.48;;
28766;SDS011;15921;52.034;20.650;2023-06-26T05:54:55;15.93;;;9.07;;
28766;SDS011;15921;52.034;20.650;2023-06-26T05:57:26;12.88;;;8.75;;
28766;SDS011;15921;52.034;20.650;2023-06-26T05:59:53;13.77;;;8.90;;
28766;SDS011;15921;52.034;20.650;2023-06-26T06:02:19;17.23;;;8.85;;
28766;SDS011;15921;52.034;20.650;2023-06-26T06:04:45;15.10;;;8.55;;
28766;SDS011;15921;52.034;20.650;2023-06-26T06:07:11;16.98;;;9.07;;
28766;SDS011;15921;52.034;20.650;2023-06-26T06:09:37;13.05;;;8.50;;
28766;SDS011;15921;52.034;20.650;2023-06-26T06:12:03;10.90;;;7.65;;
28766;SDS011;15921;52.034;20.650;2023-06-26T06:14:31;12.25;;;8.10;;
28766;SDS011;15921;52.034;20.650;2023-06-26T06:17:00;8.50;;;6.25;;
28766;SDS011;15921;52.034;20.650;2023-06-26T06:19:26;10.27;;;6.20;;
28766;SDS011;15921;52.034;20.650;2023-06-26T06:21:52;11.73;;;6.07;;
28766;SDS011;15921;52.034;20.650;2023-06-26T06:24:17;12.15;;;6.38;;
28766;SDS011;15921;52.034;20.650;2023-06-26T06:26:43;12.18;;;5.50;;
28766;SDS011;15921;52.034;20.650;2023-06-26T06:29:09;11.70;;;6.20;;
28766;SDS011;15921;52.034;20.650;2023-06-26T06:31:35;7.22;;;5.70;;
28766;SDS011;15921;52.034;20.650;2023-06-26T06:34:00;12.80;;;6.57;;
28766;SDS011;15921;52.034;20.650;2023-06-26T06:36:27;9.43;;;5.97;;
28766;SDS011;15921;52.034;20.650;2023-06-26T06:38:53;11.85;;;5.88;;
28766;SDS011;15921;52.034;20.650;2023-06-26T06:41:19;9.30;;;4.95;;
28766;SDS011;15921;52.034;20.650;2023-06-26T06:43:45;8.07;;;5.43;;
28766;SDS011;15921;52.034;20.650;2023-06-26T06:46:11;8.70;;;5.20;;
28766;SDS011;15921;52.034;20.650;2023-06-26T06:48:37;7.78;;;4.95;;
28766;SDS011;15921;52.034;20.650;2023-06-26T06:51:02;8.93;;;4.85;;
28766;SDS011;15921;52.034;20.650;2023-06-26T06:53:28;8.15;;;4.40;;
28766;SDS011;15921;52.034;20.650;2023-06-26T06:55:54;8.75;;;5.07;;
28766;SDS011;15921;52.034;20.650;2023-06-26T06:58:20;7.80;;;4.93;;
28766;SDS011;15921;52.034;20.650;2023-06-26T07:00:45;10.55;;;5.07;;
28766;SDS011;15921;52.034;20.650;2023-06-26T07:03:11;7.25;;;4.32;;
28766;SDS011;15921;52.034;20.650;2023-06-26T07:05:37;7.03;;;4.80;;
28766;SDS011;15921;52.034;20.650;2023-06-26T07:08:03;7.95;;;5.28;;
28766;SDS011;15921;52.034;20.650;2023-06-26T07:10:29;8.13;;;4.57;;
28766;SDS011;15921;52.034;20.650;2023-06-26T07:12:56;6.25;;;4.85;;
28766;SDS011;15921;52.034;20.650;2023-06-26T07:15:21;7.80;;;4.85;;
28766;SDS011;15921;52.034;20.650;2023-06-26T07:17:47;8.32;;;4.75;;
28766;SDS011;15921;52.034;20.650;2023-06-26T07:20:13;7.45;;;4.43;;
28766;SDS011;15921;52.034;20.650;2023-06-26T07:22:42;7.82;;;5.10;;
28766;SDS011;15921;52.034;20.650;2023-06-26T07:25:09;6.55;;;4.82;;
28766;SDS011;15921;52.034;20.650;2023-06-26T07:27:39;6.45;;;4.75;;
28766;SDS011;15921;52.034;20.650;2023-06-26T07:30:06;6.70;;;5.28;;
28766;SDS011;15921;52.034;20.650;2023-06-26T07:32:36;11.38;;;5.70;;
28766;SDS011;15921;52.034;20.650;2023-06-26T07:35:02;9.35;;;5.20;;
28766;SDS011;15921;52.034;20.650;2023-06-26T07:37:28;8.35;;;5.32;;
28766;SDS011;15921;52.034;20.650;2023-06-26T07:39:54;6.47;;;4.75;;
28766;SDS011;15921;52.034;20.650;2023-06-26T07:42:20;9.05;;;5.10;;
28766;SDS011;15921;52.034;20.650;2023-06-26T07:44:45;8.38;;;5.28;;
28766;SDS011;15921;52.034;20.650;2023-06-26T07:47:11;9.18;;;5.72;;
28766;SDS011;15921;52.034;20.650;2023-06-26T07:49:37;9.98;;;5.40;;
28766;SDS011;15921;52.034;20.650;2023-06-26T07:52:04;6.78;;;4.63;;
28766;SDS011;15921;52.034;20.650;2023-06-26T07:54:30;6.93;;;5.03;;
28766;SDS011;15921;52.034;20.650;2023-06-26T07:56:57;11.77;;;5.63;;
28766;SDS011;15921;52.034;20.650;2023-06-26T07:59:24;7.80;;;4.85;;
28766;SDS011;15921;52.034;20.650;2023-06-26T08:01:51;10.85;;;5.03;;
28766;SDS011;15921;52.034;20.650;2023-06-26T08:04:18;7.10;;;4.70;;
28766;SDS011;15921;52.034;20.650;2023-06-26T08:06:47;8.18;;;4.57;;
28766;SDS011;15921;52.034;20.650;2023-06-26T08:09:13;5.80;;;4.45;;
28766;SDS011;15921;52.034;20.650;2023-06-26T08:11:39;5.90;;;4.50;;
28766;SDS011;15921;52.034;20.650;2023-06-26T08:14:05;12.20;;;4.57;;
28766;SDS011;15921;52.034;20.650;2023-06-26T08:16:30;5.72;;;4.28;;
28766;SDS011;15921;52.034;20.650;2023-06-26T08:18:56;7.70;;;4.65;;
28766;SDS011;15921;52.034;20.650;2023-06-26T08:21:21;6.20;;;3.88;;
28766;SDS011;15921;52.034;20.650;2023-06-26T08:23:47;5.75;;;4.40;;
28766;SDS011;15921;52.034;20.650;2023-06-26T08:26:13;6.50;;;4.22;;
28766;SDS011;15921;52.034;20.650;2023-06-26T08:28:39;7.57;;;4.68;;
28766;SDS011;15921;52.034;20.650;2023-06-26T08:31:04;5.90;;;3.95;;
28766;SDS011;15921;52.034;20.650;2023-06-26T08:33:30;5.32;;;4.05;;
28766;SDS011;15921;52.034;20.650;2023-06-26T08:35:56;8.45;;;4.55;;
28766;SDS011;15921;52.034;20.650;2023-06-26T08:38:21;7.18;;;4.50;;
28766;SDS011;15921;52.034;20.650;2023-06-26T08:40:47;5.85;;;3.67;;
28766;SDS011;15921;52.034;20.650;2023-06-26T08:43:13;6.68;;;4.43;;
28766;SDS011;15921;52.034;20.650;2023-06-26T08:45:38;7.22;;;4.18;;
28766;SDS011;15921;52.034;20.650;2023-06-26T08:48:06;5.13;;;3.55;;
28766;SDS011;15921;52.034;20.650;2023-06-26T08:50:33;4.68;;;3.47;;
28766;SDS011;15921;52.034;20.650;2023-06-26T08:56:03;3.60;;;2.63;;
28766;SDS011;15921;52.034;20.650;2023-06-26T08:58:29;6.43;;;4.10;;
28766;SDS011;15921;52.034;20.650;2023-06-26T09:00:56;5.25;;;4.05;;
28766;SDS011;15921;52.034;20.650;2023-06-26T09:03:23;4.95;;;3.30;;
28766;SDS011;15921;52.034;20.650;2023-06-26T09:05:50;6.90;;;3.80;;
28766;SDS011;15921;52.034;20.650;2023-06-26T09:08:16;4.63;;;3.45;;
28766;SDS011;15921;52.034;20.650;2023-06-26T09:10:42;7.57;;;3.70;;
28766;SDS011;15921;52.034;20.650;2023-06-26T09:13:08;5.63;;;3.30;;
28766;SDS011;15921;52.034;20.650;2023-06-26T09:15:38;6.43;;;3.88;;
28766;SDS011;15921;52.034;20.650;2023-06-26T09:18:06;5.22;;;3.47;;
28766;SDS011;15921;52.034;20.650;2023-06-26T09:20:33;7.43;;;3.33;;
28766;SDS011;15921;52.034;20.650;2023-06-26T09:22:59;6.70;;;3.55;;
28766;SDS011;15921;52.034;20.650;2023-06-26T09:25:25;5.47;;;4.13;;
28766;SDS011;15921;52.034;20.650;2023-06-26T09:27:52;5.78;;;4.22;;
28766;SDS011;15921;52.034;20.650;2023-06-26T09:30:18;5.35;;;3.45;;
28766;SDS011;15921;52.034;20.650;2023-06-26T09:32:44;9.30;;;4.15;;
28766;SDS011;15921;52.034;20.650;2023-06-26T09:35:11;4.13;;;3.22;;
28766;SDS011;15921;52.034;20.650;2023-06-26T09:37:37;5.30;;;3.60;;
28766;SDS011;15921;52.034;20.650;2023-06-26T09:40:03;4.65;;;3.60;;
28766;SDS011;15921;52.034;20.650;2023-06-26T09:42:32;5.15;;;3.70;;
28766;SDS011;15921;52.034;20.650;2023-06-26T09:44:58;5.70;;;4.45;;
28766;SDS011;15921;52.034;20.650;2023-06-26T09:47:24;6.05;;;4.10;;
28766;SDS011;15921;52.034;20.650;2023-06-26T09:49:50;5.88;;;3.88;;
28766;SDS011;15921;52.034;20.650;2023-06-26T09:52:17;7.43;;;4.28;;
28766;SDS011;15921;52.034;20.650;2023-06-26T09:54:44;4.05;;;3.45;;
28766;SDS011;15921;52.034;20.650;2023-06-26T09:57:11;6.00;;;3.58;;
28766;SDS011;15921;52.034;20.650;2023-06-26T09:59:38;6.43;;;3.83;;
28766;SDS011;15921;52.034;20.650;2023-06-26T10:02:05;7.25;;;3.55;;
28766;SDS011;15921;52.034;20.650;2023-06-26T10:04:31;4.47;;;3.60;;
28766;SDS011;15921;52.034;20.650;2023-06-26T10:06:58;4.47;;;3.05;;
28766;SDS011;15921;52.034;20.650;2023-06-26T10:09:27;5.15;;;3.45;;
28766;SDS011;15921;52.034;20.650;2023-06-26T10:11:57;3.83;;;3.17;;
28766;SDS011;15921;52.034;20.650;2023-06-26T10:14:32;5.47;;;3.30;;
28766;SDS011;15921;52.034;20.650;2023-06-26T10:17:01;7.25;;;3.90;;
28766;SDS011;15921;52.034;20.650;2023-06-26T10:19:31;6.55;;;3.70;;
28766;SDS011;15921;52.034;20.650;2023-06-26T10:21:58;6.45;;;3.25;;
28766;SDS011;15921;52.034;20.650;2023-06-26T10:24:25;6.15;;;3.90;;
28766;SDS011;15921;52.034;20.650;2023-06-26T10:26:57;8.32;;;4.10;;
28766;SDS011;15921;52.034;20.650;2023-06-26T10:29:27;5.57;;;3.70;;
28766;SDS011;15921;52.034;20.650;2023-06-26T10:31:55;15.10;;;5.60;;
28766;SDS011;15921;52.034;20.650;2023-06-26T10:34:24;6.63;;;3.33;;
28766;SDS011;15921;52.034;20.650;2023-06-26T10:37:00;6.13;;;3.78;;
28766;SDS011;15921;52.034;20.650;2023-06-26T10:39:26;5.43;;;3.47;;
28766;SDS011;15921;52.034;20.650;2023-06-26T10:41:54;7.82;;;3.63;;
28766;SDS011;15921;52.034;20.650;2023-06-26T10:44:20;5.82;;;3.85;;
28766;SDS011;15921;52.034;20.650;2023-06-26T10:46:53;6.53;;;3.60;;
28766;SDS011;15921;52.034;20.650;2023-06-26T10:49:21;7.88;;;3.55;;
28766;SDS011;15921;52.034;20.650;2023-06-26T10:51:51;5.15;;;3.60;;
28766;SDS011;15921;52.034;20.650;2023-06-26T10:54:19;5.80;;;3.45;;
28766;SDS011;15921;52.034;20.650;2023-06-26T10:56:46;8.88;;;4.18;;
28766;SDS011;15921;52.034;20.650;2023-06-26T10:59:14;4.55;;;3.63;;
28766;SDS011;15921;52.034;20.650;2023-06-26T11:01:43;7.93;;;3.80;;
28766;SDS011;15921;52.034;20.650;2023-06-26T11:04:11;8.10;;;3.53;;
28766;SDS011;15921;52.034;20.650;2023-06-26T11:06:39;9.48;;;4.20;;
28766;SDS011;15921;52.034;20.650;2023-06-26T11:14:17;5.75;;;3.50;;
28766;SDS011;15921;52.034;20.650;2023-06-26T11:16:43;4.28;;;3.15;;
28766;SDS011;15921;52.034;20.650;2023-06-26T11:19:09;11.85;;;4.03;;
28766;SDS011;15921;52.034;20.650;2023-06-26T11:21:37;9.57;;;3.85;;
28766;SDS011;15921;52.034;20.650;2023-06-26T11:24:04;3.78;;;3.10;;
28766;SDS011;15921;52.034;20.650;2023-06-26T11:26:40;6.82;;;3.65;;
28766;SDS011;15921;52.034;20.650;2023-06-26T11:29:10;7.65;;;3.17;;
28766;SDS011;15921;52.034;20.650;2023-06-26T11:31:37;4.90;;;3.22;;
28766;SDS011;15921;52.034;20.650;2023-06-26T11:34:07;4.53;;;3.55;;
28766;SDS011;15921;52.034;20.650;2023-06-26T11:36:35;4.50;;;3.33;;
28766;SDS011;15921;52.034;20.650;2023-06-26T11:39:04;6.70;;;3.10;;
28766;SDS011;15921;52.034;20.650;2023-06-26T11:41:31;7.65;;;3.97;;
28766;SDS011;15921;52.034;20.650;2023-06-26T11:44:01;10.05;;;3.88;;
28766;SDS011;15921;52.034;20.650;2023-06-26T11:46:30;4.13;;;3.40;;
28766;SDS011;15921;52.034;20.650;2023-06-26T11:48:56;4.70;;;3.63;;
28766;SDS011;15921;52.034;20.650;2023-06-26T11:51:22;5.32;;;3.20;;
28766;SDS011;15921;52.034;20.650;2023-06-26T11:53:49;6.10;;;3.50;;
28766;SDS011;15921;52.034;20.650;2023-06-26T11:56:16;4.07;;;3.40;;
28766;SDS011;15921;52.034;20.650;2023-06-26T11:58:55;7.78;;;3.80;;
28766;SDS011;15921;52.034;20.650;2023-06-26T12:01:22;5.57;;;3.47;;
28766;SDS011;15921;52.034;20.650;2023-06-26T12:03:50;7.35;;;3.25;;
28766;SDS011;15921;52.034;20.650;2023-06-26T12:06:16;6.90;;;3.90;;
28766;SDS011;15921;52.034;20.650;2023-06-26T12:08:42;5.38;;;3.70;;
28766;SDS011;15921;52.034;20.650;2023-06-26T12:11:08;7.18;;;3.80;;
28766;SDS011;15921;52.034;20.650;2023-06-26T12:13:34;4.82;;;3.67;;
28766;SDS011;15921;52.034;20.650;2023-06-26T12:16:00;7.20;;;3.95;;
28766;SDS011;15921;52.034;20.650;2023-06-26T12:18:32;10.00;;;3.83;;
28766;SDS011;15921;52.034;20.650;2023-06-26T12:20:59;8.27;;;4.18;;
28766;SDS011;15921;52.034;20.650;2023-06-26T12:23:31;6.10;;;3.40;;
28766;SDS011;15921;52.034;20.650;2023-06-26T12:26:16;4.78;;;3.75;;
28766;SDS011;15921;52.034;20.650;2023-06-26T12:28:44;6.90;;;4.28;;
28766;SDS011;15921;52.034;20.650;2023-06-26T12:31:16;5.18;;;4.18;;
28766;SDS011;15921;52.034;20.650;2023-06-26T12:33:45;4.95;;;3.42;;
28766;SDS011;15921;52.034;20.650;2023-06-26T12:36:13;6.40;;;3.65;;
28766;SDS011;15921;52.034;20.650;2023-06-26T12:38:42;6.38;;;3.83;;
28766;SDS011;15921;52.034;20.650;2023-06-26T12:41:12;3.83;;;3.40;;
28766;SDS011;15921;52.034;20.650;2023-06-26T12:43:41;4.32;;;3.28;;
28766;SDS011;15921;52.034;20.650;2023-06-26T12:46:08;5.03;;;3.45;;
28766;SDS011;15921;52.034;20.650;2023-06-26T12:48:41;6.38;;;3.40;;
28766;SDS011;15921;52.034;20.650;2023-06-26T12:51:14;7.57;;;3.28;;
28766;SDS011;15921;52.034;20.650;2023-06-26T12:53:42;4.70;;;3.50;;
28766;SDS011;15921;52.034;20.650;2023-06-26T12:56:08;6.10;;;3.10;;
28766;SDS011;15921;52.034;20.650;2023-06-26T12:58:35;5.45;;;3.25;;
28766;SDS011;15921;52.034;20.650;2023-06-26T13:01:07;3.75;;;3.00;;
28766;SDS011;15921;52.034;20.650;2023-06-26T13:03:39;4.10;;;3.00;;
28766;SDS011;15921;52.034;20.650;2023-06-26T13:06:05;5.13;;;3.60;;
28766;SDS011;15921;52.034;20.650;2023-06-26T13:08:31;7.18;;;3.85;;
28766;SDS011;15921;52.034;20.650;2023-06-26T13:10:57;8.48;;;3.60;;
28766;SDS011;15921;52.034;20.650;2023-06-26T13:13:22;3.80;;;3.40;;
28766;SDS011;15921;52.034;20.650;2023-06-26T13:15:48;3.40;;;2.90;;
28766;SDS011;15921;52.034;20.650;2023-06-26T13:18:14;5.82;;;3.33;;
28766;SDS011;15921;52.034;20.650;2023-06-26T13:20:40;4.82;;;3.55;;
28766;SDS011;15921;52.034;20.650;2023-06-26T13:23:06;4.22;;;3.13;;
28766;SDS011;15921;52.034;20.650;2023-06-26T13:25:32;4.20;;;3.60;;
28766;SDS011;15921;52.034;20.650;2023-06-26T13:27:58;5.20;;;3.60;;
28766;SDS011;15921;52.034;20.650;2023-06-26T13:30:24;7.47;;;3.55;;
28766;SDS011;15921;52.034;20.650;2023-06-26T13:32:49;4.07;;;3.38;;
28766;SDS011;15921;52.034;20.650;2023-06-26T13:35:15;3.85;;;3.28;;
28766;SDS011;15921;52.034;20.650;2023-06-26T13:37:41;4.22;;;3.55;;
28766;SDS011;15921;52.034;20.650;2023-06-26T13:40:08;3.60;;;3.10;;
28766;SDS011;15921;52.034;20.650;2023-06-26T13:42:34;4.90;;;3.70;;
28766;SDS011;15921;52.034;20.650;2023-06-26T13:45:01;5.55;;;3.38;;
28766;SDS011;15921;52.034;20.650;2023-06-26T13:47:30;3.67;;;3.00;;
28766;SDS011;15921;52.034;20.650;2023-06-26T13:49:55;6.63;;;2.97;;
28766;SDS011;15921;52.034;20.650;2023-06-26T13:52:21;4.10;;;3.30;;
28766;SDS011;15921;52.034;20.650;2023-06-26T13:54:47;6.22;;;3.55;;
28766;SDS011;15921;52.034;20.650;2023-06-26T13:57:12;5.50;;;2.90;;
28766;SDS011;15921;52.034;20.650;2023-06-26T13:59:38;5.63;;;3.22;;
28766;SDS011;15921;52.034;20.650;2023-06-26T14:02:04;3.92;;;3.25;;
28766;SDS011;15921;52.034;20.650;2023-06-26T14:04:31;4.43;;;3.50;;
28766;SDS011;15921;52.034;20.650;2023-06-26T14:06:57;7.68;;;3.80;;
28766;SDS011;15921;52.034;20.650;2023-06-26T14:09:23;6.22;;;3.80;;
28766;SDS011;15921;52.034;20.650;2023-06-26T14:11:49;4.72;;;2.95;;
28766;SDS011;15921;52.034;20.650;2023-06-26T14:14:15;3.63;;;3.15;;
28766;SDS011;15921;52.034;20.650;2023-06-26T14:16:41;4.03;;;3.10;;
28766;SDS011;15921;52.034;20.650;2023-06-26T14:19:06;4.30;;;3.03;;
28766;SDS011;15921;52.034;20.650;2023-06-26T14:21:32;3.50;;;3.08;;
28766;SDS011;15921;52.034;20.650;2023-06-26T14:24:01;3.53;;;2.47;;
28766;SDS011;15921;52.034;20.650;2023-06-26T14:26:27;5.82;;;3.20;;
28766;SDS011;15921;52.034;20.650;2023-06-26T14:28:54;4.40;;;2.85;;
28766;SDS011;15921;52.034;20.650;2023-06-26T14:31:20;4.95;;;3.00;;
28766;SDS011;15921;52.034;20.650;2023-06-26T14:33:46;4.70;;;3.22;;
28766;SDS011;15921;52.034;20.650;2023-06-26T14:36:12;4.35;;;3.30;;
28766;SDS011;15921;52.034;20.650;2023-06-26T14:38:37;6.78;;;3.03;;
28766;SDS011;15921;52.034;20.650;2023-06-26T14:41:03;5.57;;;3.08;;
28766;SDS011;15921;52.034;20.650;2023-06-26T14:43:28;3.20;;;2.90;;